createdAt,value
2018-07-02T00:00:31.114Z,61.1
2018-07-02T00:01:32.733Z,61.0
2018-07-02T00:02:34.344Z,60.8
2018-07-02T00:03:35.961Z,60.7
2018-07-02T00:04:37.574Z,60.9
2018-07-02T00:05:39.194Z,60.8
2018-07-02T00:06:40.806Z,59.8
2018-07-02T00:07:42.419Z,60.1
2018-07-02T00:08:44.028Z,60.7
2018-07-02T00:09:45.640Z,60.9
2018-07-02T00:10:47.255Z,61.0
2018-07-02T00:11:48.865Z,61.6
2018-07-02T00:12:50.480Z,61.0
2018-07-02T00:13:52.098Z,60.9
2018-07-02T00:14:53.710Z,61.3
2018-07-02T00:15:55.327Z,61.0
2018-07-02T00:16:56.939Z,60.9
2018-07-02T00:17:58.551Z,61.2
2018-07-02T00:19:00.170Z,61.7
2018-07-02T00:20:01.785Z,62.0
2018-07-02T00:21:03.405Z,61.8
2018-07-02T00:22:05.017Z,61.4
2018-07-02T00:23:07.435Z,61.2
2018-07-02T00:24:09.044Z,61.9
2018-07-02T00:25:10.678Z,61.4
2018-07-02T00:26:12.273Z,61.6
2018-07-02T00:27:13.889Z,61.9
2018-07-02T00:28:15.507Z,61.3
2018-07-02T00:29:17.117Z,61.5
2018-07-02T00:30:18.736Z,62.0
2018-07-02T00:31:20.346Z,61.4
2018-07-02T00:32:21.967Z,61.4
2018-07-02T00:33:23.575Z,62.0
2018-07-02T00:34:25.187Z,62.1
2018-07-02T00:35:26.805Z,61.3
2018-07-02T00:36:28.413Z,61.6
2018-07-02T00:37:30.031Z,61.8
2018-07-02T00:38:31.646Z,62.1
2018-07-02T00:39:33.260Z,61.9
2018-07-02T00:40:34.874Z,61.4
2018-07-02T00:41:36.487Z,61.8
2018-07-02T00:42:38.143Z,61.7
2018-07-02T00:43:39.717Z,62.1
2018-07-02T00:44:41.330Z,62.5
2018-07-02T00:45:42.943Z,62.1
2018-07-02T00:46:44.563Z,62.3
2018-07-02T00:47:46.173Z,62.3
2018-07-02T00:48:47.788Z,62.0
2018-07-02T00:49:49.402Z,62.5
2018-07-02T00:50:51.022Z,62.6
2018-07-02T00:51:52.629Z,62.7
2018-07-02T00:52:54.242Z,63.2
2018-07-02T00:53:55.864Z,62.7
2018-07-02T00:54:57.478Z,62.5
2018-07-02T00:55:59.095Z,62.7
2018-07-02T00:57:00.705Z,63.0
2018-07-02T00:58:02.315Z,62.8
2018-07-02T00:59:03.929Z,63.1
2018-07-02T01:00:05.542Z,63.4
2018-07-02T01:01:07.152Z,63.8
2018-07-02T01:02:08.770Z,63.5
2018-07-02T01:03:10.388Z,63.8
2018-07-02T01:04:11.999Z,63.4
2018-07-02T01:05:13.621Z,63.9
2018-07-02T01:06:15.226Z,63.6
2018-07-02T01:07:16.840Z,62.9
2018-07-02T01:08:18.455Z,63.3
2018-07-02T01:09:20.064Z,63.9
2018-07-02T01:10:21.683Z,63.3
2018-07-02T01:11:23.299Z,63.9
2018-07-02T01:12:24.915Z,63.8
2018-07-02T01:13:26.525Z,63.7
2018-07-02T01:14:28.139Z,63.4
2018-07-02T01:15:29.757Z,63.9
2018-07-02T01:16:31.368Z,63.6
2018-07-02T01:17:32.981Z,64.5
2018-07-02T01:18:34.598Z,64.7
2018-07-02T01:19:36.208Z,64.2
2018-07-02T01:20:37.822Z,64.5
2018-07-02T01:21:39.439Z,64.5
2018-07-02T01:22:41.050Z,64.1
2018-07-02T01:23:42.672Z,64.4
2018-07-02T01:24:44.283Z,64.8
2018-07-02T01:25:45.902Z,64.8
2018-07-02T01:26:47.513Z,64.4
2018-07-02T01:27:49.123Z,64.3
2018-07-02T01:28:50.739Z,64.7
2018-07-02T01:29:52.348Z,64.9
2018-07-02T01:30:53.974Z,64.6
2018-07-02T01:31:55.584Z,64.7
2018-07-02T01:32:57.200Z,64.9
2018-07-02T01:33:58.816Z,64.8
2018-07-02T01:35:00.425Z,64.7
2018-07-02T01:36:02.036Z,64.9
2018-07-02T01:37:03.653Z,64.6
2018-07-02T01:38:05.265Z,65.2
2018-07-02T01:39:06.883Z,65.2
2018-07-02T01:40:08.501Z,64.8
2018-07-02T01:41:10.109Z,65.5
2018-07-02T01:42:11.725Z,65.4
2018-07-02T01:43:13.341Z,65.9
2018-07-02T01:44:14.956Z,66.3
2018-07-02T01:45:16.567Z,66.1
2018-07-02T01:46:18.181Z,65.9
2018-07-02T01:47:19.797Z,65.5
2018-07-02T01:48:21.407Z,65.5
2018-07-02T01:49:23.018Z,65.9
2018-07-02T01:50:24.636Z,66.3
2018-07-02T01:51:26.248Z,65.7
2018-07-02T01:52:27.867Z,66.1
2018-07-02T01:53:29.476Z,65.5
2018-07-02T01:54:31.089Z,65.6
2018-07-02T01:55:32.707Z,65.9
2018-07-02T01:56:34.314Z,66.3
2018-07-02T01:57:35.931Z,66.3
2018-07-02T01:58:37.542Z,66.3
2018-07-02T01:59:39.160Z,66.5
2018-07-02T02:00:40.777Z,66.2
2018-07-02T02:01:42.394Z,66.9
2018-07-02T02:02:44.002Z,66.4
2018-07-02T02:03:45.614Z,66.8
2018-07-02T02:04:47.229Z,66.8
2018-07-02T02:05:48.840Z,66.6
2018-07-02T02:06:50.458Z,67.4
2018-07-02T02:07:52.068Z,67.0
2018-07-02T02:08:53.685Z,66.8
2018-07-02T02:09:55.294Z,67.5
2018-07-02T02:10:56.904Z,67.2
2018-07-02T02:11:58.521Z,67.6
2018-07-02T02:13:00.130Z,68.3
2018-07-02T02:14:01.749Z,67.7
2018-07-02T02:15:03.358Z,67.0
2018-07-02T02:16:04.979Z,67.5
2018-07-02T02:17:06.590Z,67.8
2018-07-02T02:18:08.208Z,68.1
2018-07-02T02:19:09.816Z,68.4
2018-07-02T02:20:11.427Z,68.5
2018-07-02T02:21:13.046Z,68.0
2018-07-02T02:22:14.657Z,68.6
2018-07-02T02:23:16.276Z,69.2
2018-07-02T02:24:17.884Z,68.9
2018-07-02T02:25:19.503Z,69.3
2018-07-02T02:26:21.112Z,69.3
2018-07-02T02:27:22.725Z,69.1
2018-07-02T02:28:24.341Z,69.0
2018-07-02T02:29:25.955Z,68.8
2018-07-02T02:30:27.571Z,69.0
2018-07-02T02:31:29.185Z,69.4
2018-07-02T02:32:30.795Z,69.5
2018-07-02T02:33:32.406Z,69.5
2018-07-02T02:34:34.025Z,69.6
2018-07-02T02:35:35.633Z,69.5
2018-07-02T02:36:37.255Z,70.6
2018-07-02T02:37:38.867Z,70.7
2018-07-02T02:38:40.477Z,70.6
2018-07-02T02:39:42.086Z,70.4
2018-07-02T02:40:43.702Z,70.2
2018-07-02T02:41:45.312Z,70.8
2018-07-02T02:42:46.930Z,71.6
2018-07-02T02:43:48.551Z,71.2
2018-07-02T02:44:50.161Z,71.2
2018-07-02T02:45:51.778Z,71.4
2018-07-02T02:46:53.386Z,71.3
2018-07-02T02:47:54.999Z,71.3
2018-07-02T02:48:56.611Z,71.2
2018-07-02T02:49:58.228Z,71.1
2018-07-02T02:50:59.842Z,71.2
2018-07-02T02:52:01.454Z,71.1
2018-07-02T02:53:03.072Z,71.6
2018-07-02T02:54:04.682Z,71.4
2018-07-02T02:55:06.300Z,71.4
2018-07-02T02:56:07.909Z,71.8
2018-07-02T02:57:09.527Z,71.9
2018-07-02T02:58:11.140Z,71.9
2018-07-02T02:59:12.761Z,72.3
2018-07-02T03:00:14.383Z,71.7
2018-07-02T03:01:15.982Z,71.4
2018-07-02T03:02:18.180Z,71.9
2018-07-02T03:03:19.796Z,72.5
2018-07-02T03:04:21.412Z,72.3
2018-07-02T03:05:23.587Z,72.2
2018-07-02T03:06:25.822Z,72.5
2018-07-02T03:07:28.010Z,72.3
2018-07-02T03:08:29.623Z,72.9
2018-07-02T03:09:31.236Z,72.7
2018-07-02T03:10:32.856Z,72.8
2018-07-02T03:11:34.466Z,72.7
2018-07-02T03:12:36.096Z,72.8
2018-07-02T03:13:37.704Z,73.0
2018-07-02T03:14:39.318Z,72.6
2018-07-02T03:15:40.936Z,72.7
2018-07-02T03:16:42.551Z,72.9
2018-07-02T03:17:44.170Z,73.1
2018-07-02T03:18:45.788Z,73.6
2018-07-02T03:19:47.400Z,73.6
2018-07-02T03:20:49.015Z,73.6
2018-07-02T03:21:50.633Z,73.6
2018-07-02T03:22:52.252Z,73.6
2018-07-02T03:23:53.861Z,73.8
2018-07-02T03:24:55.478Z,74.0
2018-07-02T03:25:57.091Z,74.5
2018-07-02T03:26:58.709Z,74.0
2018-07-02T03:28:00.332Z,74.1
2018-07-02T03:29:01.946Z,74.3
2018-07-02T03:30:03.562Z,73.3
2018-07-02T03:31:05.179Z,73.9
2018-07-02T03:32:06.794Z,74.3
2018-07-02T03:33:08.411Z,74.7
2018-07-02T03:34:10.025Z,74.8
2018-07-02T03:35:11.646Z,74.6
2018-07-02T03:36:13.262Z,74.5
2018-07-02T03:37:14.882Z,74.3
2018-07-02T03:38:16.494Z,74.6
2018-07-02T03:39:18.112Z,74.6
2018-07-02T03:40:19.730Z,74.5
2018-07-02T03:41:21.342Z,74.0
2018-07-02T03:42:22.963Z,74.0
2018-07-02T03:43:24.578Z,74.0
2018-07-02T03:44:26.191Z,74.2
2018-07-02T03:45:27.810Z,74.0
2018-07-02T03:46:29.424Z,73.8
2018-07-02T03:47:31.040Z,74.2
2018-07-02T03:48:32.664Z,74.0
2018-07-02T03:49:34.283Z,74.0
2018-07-02T03:50:35.893Z,73.8
2018-07-02T03:51:37.511Z,73.3
2018-07-02T03:52:39.123Z,73.9
2018-07-02T03:53:40.741Z,73.5
2018-07-02T03:54:42.373Z,73.4
2018-07-02T03:55:43.994Z,73.7
2018-07-02T03:56:45.609Z,73.2
2018-07-02T03:57:47.224Z,73.0
2018-07-02T03:58:48.842Z,73.2
2018-07-02T03:59:50.456Z,73.4
2018-07-02T04:00:52.075Z,73.4
2018-07-02T04:01:53.696Z,73.8
2018-07-02T04:02:55.313Z,73.4
2018-07-02T04:03:56.933Z,72.7
2018-07-02T04:04:58.546Z,73.2
2018-07-02T04:06:00.168Z,72.7
2018-07-02T04:07:01.786Z,72.8
2018-07-02T04:08:03.398Z,72.7
2018-07-02T04:09:05.025Z,73.0
2018-07-02T04:10:06.640Z,73.2
2018-07-02T04:11:08.263Z,73.1
2018-07-02T04:12:09.936Z,72.8
2018-07-02T04:13:11.499Z,72.7
2018-07-02T04:14:13.111Z,73.1
2018-07-02T04:15:14.732Z,73.0
2018-07-02T04:16:16.352Z,73.0
2018-07-02T04:17:17.967Z,72.8
2018-07-02T04:18:19.592Z,73.0
2018-07-02T04:19:21.206Z,72.4
2018-07-02T04:20:22.822Z,72.7
2018-07-02T04:21:24.446Z,72.4
2018-07-02T04:22:26.066Z,72.5
2018-07-02T04:23:27.678Z,72.9
2018-07-02T04:24:29.296Z,72.7
2018-07-02T04:25:30.920Z,72.1
2018-07-02T04:26:32.532Z,72.8
2018-07-02T04:27:34.155Z,72.4
2018-07-02T04:28:35.768Z,72.3
2018-07-02T04:29:37.386Z,72.6
2018-07-02T04:30:39.005Z,72.3
2018-07-02T04:31:40.622Z,71.8
2018-07-02T04:32:42.281Z,72.0
2018-07-02T04:33:43.858Z,71.9
2018-07-02T04:34:45.477Z,71.9
2018-07-02T04:35:47.095Z,72.4
2018-07-02T04:36:48.720Z,72.0
2018-07-02T04:37:50.333Z,72.0
2018-07-02T04:38:51.953Z,72.2
2018-07-02T04:39:53.569Z,72.6
2018-07-02T04:40:55.188Z,72.2
2018-07-02T04:41:56.808Z,72.2
2018-07-02T04:42:58.424Z,72.5
2018-07-02T04:44:00.044Z,72.2
2018-07-02T04:45:01.664Z,72.2
2018-07-02T04:46:03.280Z,72.6
2018-07-02T04:47:04.902Z,72.1
2018-07-02T04:48:06.520Z,72.4
2018-07-02T04:49:08.134Z,72.2
2018-07-02T04:50:09.751Z,72.5
2018-07-02T04:51:11.426Z,72.0
2018-07-02T04:52:12.990Z,72.0
2018-07-02T04:53:14.618Z,72.3
2018-07-02T04:54:16.192Z,71.9
2018-07-02T04:55:17.800Z,72.0
2018-07-02T04:56:19.423Z,72.0
2018-07-02T04:57:21.038Z,71.5
2018-07-02T04:58:22.662Z,71.7
2018-07-02T04:59:24.285Z,71.8
2018-07-02T05:00:25.906Z,72.0
2018-07-02T05:01:27.528Z,72.0
2018-07-02T05:02:29.139Z,72.9
2018-07-02T05:03:30.754Z,72.1
2018-07-02T05:04:32.378Z,72.2
2018-07-02T05:05:34.087Z,72.3
2018-07-02T05:06:35.612Z,72.2
2018-07-02T05:07:37.244Z,72.3
2018-07-02T05:08:38.854Z,72.0
2018-07-02T05:09:40.472Z,71.9
2018-07-02T05:10:42.088Z,72.0
2018-07-02T05:11:43.725Z,72.3
2018-07-02T05:12:45.348Z,72.3
2018-07-02T05:13:46.963Z,72.2
2018-07-02T05:14:48.586Z,72.0
2018-07-02T05:15:50.202Z,72.5
2018-07-02T05:16:51.826Z,73.0
2018-07-02T05:17:53.437Z,72.1
2018-07-02T05:18:55.054Z,72.0
2018-07-02T05:19:56.679Z,73.1
2018-07-02T05:20:58.292Z,72.9
2018-07-02T05:21:59.913Z,71.7
2018-07-02T05:23:01.573Z,71.5
2018-07-02T05:24:03.243Z,70.6
2018-07-02T05:25:05.152Z,69.9
2018-07-02T05:26:06.743Z,69.4
2018-07-02T05:27:08.388Z,69.4
2018-07-02T05:28:10.001Z,69.3
2018-07-02T05:29:11.632Z,69.5
2018-07-02T05:30:14.514Z,69.3
2018-07-02T05:31:16.103Z,69.5
2018-07-02T05:32:17.721Z,69.4
2018-07-02T05:33:19.341Z,69.4
2018-07-02T05:34:20.964Z,69.4
2018-07-02T05:35:22.589Z,69.4
2018-07-02T05:36:24.980Z,68.9
2018-07-02T05:37:26.601Z,68.3
2018-07-02T05:38:28.220Z,67.4
2018-07-02T05:39:29.834Z,66.5
2018-07-02T05:40:31.458Z,67.3
2018-07-02T05:41:33.074Z,66.7
2018-07-02T05:42:34.695Z,66.9
2018-07-02T05:43:36.318Z,66.9
2018-07-02T05:44:38.078Z,66.7
2018-07-02T05:45:39.552Z,66.1
2018-07-02T05:46:41.169Z,66.6
2018-07-02T05:47:42.790Z,66.4
2018-07-02T05:48:44.405Z,65.9
2018-07-02T05:49:46.032Z,65.4
2018-07-02T05:50:47.650Z,65.5
2018-07-02T05:51:49.266Z,66.4
2018-07-02T05:52:50.887Z,65.8
2018-07-02T05:53:53.482Z,65.5
2018-07-02T05:54:55.103Z,65.9
2018-07-02T05:55:56.718Z,65.3
2018-07-02T05:56:58.337Z,65.5
2018-07-02T05:57:59.961Z,66.2
2018-07-02T05:59:01.583Z,66.1
2018-07-02T06:00:03.235Z,66.1
2018-07-02T06:01:04.821Z,65.8
2018-07-02T06:02:06.435Z,65.1
2018-07-02T06:03:08.053Z,65.0
2018-07-02T06:04:09.679Z,63.6
2018-07-02T06:05:11.302Z,63.6
2018-07-02T06:06:12.923Z,63.7
2018-07-02T06:07:14.541Z,63.5
2018-07-02T06:08:16.161Z,63.4
2018-07-02T06:09:17.773Z,63.1
2018-07-02T06:10:19.394Z,62.7
2018-07-02T06:11:21.019Z,62.4
2018-07-02T06:12:22.634Z,62.3
2018-07-02T06:13:24.256Z,62.5
2018-07-02T06:14:25.884Z,62.1
2018-07-02T06:15:27.515Z,60.3
2018-07-02T06:16:29.154Z,58.1
2018-07-02T06:17:30.766Z,55.3
2018-07-02T06:18:32.393Z,52.9
2018-07-02T06:19:34.018Z,49.7
2018-07-02T06:20:35.638Z,47.2
2018-07-02T06:21:37.256Z,45.7
2018-07-02T06:22:38.880Z,44.1
2018-07-02T06:23:40.501Z,43.2
2018-07-02T06:24:42.154Z,42.1
2018-07-02T06:25:43.744Z,40.8
2018-07-02T06:26:45.364Z,39.6
2018-07-02T06:27:46.988Z,38.2
2018-07-02T06:28:48.612Z,37.7
2018-07-02T06:29:50.234Z,37.2
2018-07-02T06:30:51.856Z,36.0
2018-07-02T06:31:53.484Z,36.2
2018-07-02T06:32:55.104Z,36.0
2018-07-02T06:33:56.727Z,34.9
2018-07-02T06:34:58.358Z,33.9
2018-07-02T06:35:59.977Z,33.9
2018-07-02T06:37:01.608Z,32.5
2018-07-02T06:38:03.231Z,32.6
2018-07-02T06:39:04.860Z,32.6
2018-07-02T06:40:06.490Z,32.6
2018-07-02T06:41:08.118Z,32.7
2018-07-02T06:42:09.747Z,32.7
2018-07-02T06:43:11.365Z,31.2
2018-07-02T06:44:12.996Z,31.1
2018-07-02T06:45:14.618Z,30.7
2018-07-02T06:46:16.244Z,30.3
2018-07-02T06:47:17.878Z,30.6
2018-07-02T06:48:19.499Z,31.2
2018-07-02T06:49:21.135Z,30.7
2018-07-02T06:50:22.768Z,30.7
2018-07-02T06:51:24.396Z,30.9
2018-07-02T06:52:26.030Z,30.1
2018-07-02T06:53:27.650Z,29.4
2018-07-02T06:54:29.285Z,29.5
2018-07-02T06:55:30.913Z,30.2
2018-07-02T06:56:32.547Z,29.3
2018-07-02T06:57:34.176Z,28.6
2018-07-02T06:58:35.850Z,28.5
2018-07-02T06:59:37.446Z,28.0
2018-07-02T07:00:39.075Z,27.8
2018-07-02T07:01:40.703Z,28.2
2018-07-02T07:02:42.340Z,28.5
2018-07-02T07:03:43.967Z,28.1
2018-07-02T07:04:45.597Z,27.5
2018-07-02T07:05:47.233Z,27.7
2018-07-02T07:06:48.864Z,27.9
2018-07-02T07:07:50.493Z,27.1
2018-07-02T07:08:52.127Z,26.3
2018-07-02T07:09:53.762Z,26.1
2018-07-02T07:10:55.400Z,26.1
2018-07-02T07:11:57.032Z,25.5
2018-07-02T07:12:58.663Z,24.5
2018-07-02T07:14:00.302Z,24.5
2018-07-02T07:15:01.935Z,24.4
2018-07-02T07:16:03.569Z,24.4
2018-07-02T07:17:05.204Z,24.5
2018-07-02T07:18:06.844Z,24.5
2018-07-02T07:19:08.476Z,25.3
2018-07-02T07:20:10.105Z,25.8
2018-07-02T07:21:11.741Z,26.0
2018-07-02T07:22:13.375Z,25.5
2018-07-02T07:23:15.016Z,25.8
2018-07-02T07:24:16.647Z,26.6
2018-07-02T07:25:18.298Z,25.6
2018-07-02T07:26:19.929Z,25.1
2018-07-02T07:27:21.560Z,25.4
2018-07-02T07:28:23.191Z,25.1
2018-07-02T07:29:24.825Z,25.1
2018-07-02T07:30:26.463Z,25.1
2018-07-02T07:31:28.098Z,24.3
2018-07-02T07:32:29.738Z,25.2
2018-07-02T07:33:31.376Z,24.4
2018-07-02T07:34:33.007Z,25.2
2018-07-02T07:35:34.644Z,24.4
2018-07-02T07:36:36.277Z,23.8
2018-07-02T07:37:37.920Z,24.3
2018-07-02T07:38:40.458Z,24.1
2018-07-02T07:39:42.096Z,23.7
2018-07-02T07:40:43.724Z,23.9
2018-07-02T07:41:45.362Z,24.0
2018-07-02T07:42:46.996Z,25.3
2018-07-02T07:43:48.640Z,24.7
2018-07-02T07:44:50.295Z,25.1
2018-07-02T07:45:51.914Z,25.2
2018-07-02T07:46:53.546Z,24.4
2018-07-02T07:47:55.175Z,24.0
2018-07-02T07:48:56.813Z,24.3
2018-07-02T07:49:58.446Z,25.8
2018-07-02T07:51:00.087Z,25.4
2018-07-02T07:52:01.725Z,24.6
2018-07-02T07:53:03.358Z,24.3
2018-07-02T07:54:05.001Z,24.6
2018-07-02T07:55:06.634Z,24.5
2018-07-02T07:56:08.275Z,25.4
2018-07-02T07:57:09.903Z,26.0
2018-07-02T07:58:11.542Z,26.1
2018-07-02T07:59:13.182Z,25.3
2018-07-02T08:00:14.815Z,24.7
2018-07-02T08:01:16.458Z,25.1
2018-07-02T08:02:18.095Z,25.6
2018-07-02T08:03:19.728Z,25.4
2018-07-02T08:04:21.361Z,24.5
2018-07-02T08:05:22.999Z,24.4
2018-07-02T08:06:24.634Z,24.5
2018-07-02T08:07:26.272Z,24.4
2018-07-02T08:08:27.911Z,24.5
2018-07-02T08:09:29.539Z,24.6
2018-07-02T08:10:31.235Z,23.9
2018-07-02T08:11:32.816Z,23.9
2018-07-02T08:12:34.450Z,23.3
2018-07-02T08:13:36.091Z,22.7
2018-07-02T08:14:37.733Z,22.5
2018-07-02T08:15:39.369Z,22.9
2018-07-02T08:16:41.007Z,22.6
2018-07-02T08:17:42.643Z,22.5
2018-07-02T08:18:44.279Z,22.5
2018-07-02T08:19:45.916Z,22.9
2018-07-02T08:20:47.554Z,23.2
2018-07-02T08:21:49.190Z,22.5
2018-07-02T08:22:50.828Z,22.7
2018-07-02T08:23:52.469Z,22.8
2018-07-02T08:24:54.103Z,22.5
2018-07-02T08:25:55.748Z,21.8
2018-07-02T08:26:57.389Z,22.0
2018-07-02T08:27:59.021Z,21.3
2018-07-02T08:29:00.666Z,21.7
2018-07-02T08:30:02.303Z,22.0
2018-07-02T08:31:03.942Z,21.3
2018-07-02T08:32:05.583Z,20.9
2018-07-02T08:33:07.249Z,20.8
2018-07-02T08:34:08.855Z,20.7
2018-07-02T08:35:10.495Z,20.9
2018-07-02T08:36:12.139Z,20.6
2018-07-02T08:37:13.780Z,20.5
2018-07-02T08:38:15.418Z,20.3
2018-07-02T08:39:17.059Z,19.9
2018-07-02T08:40:18.695Z,20.0
2018-07-02T08:41:20.356Z,19.9
2018-07-02T08:42:21.978Z,19.9
2018-07-02T08:43:23.618Z,19.3
2018-07-02T08:44:25.263Z,18.5
2018-07-02T08:45:26.903Z,18.4
2018-07-02T08:46:28.537Z,18.2
2018-07-02T08:47:30.179Z,18.7
2018-07-02T08:48:31.831Z,18.5
2018-07-02T08:49:33.472Z,18.5
2018-07-02T08:50:35.109Z,17.8
2018-07-02T08:51:36.756Z,17.1
2018-07-02T08:52:38.424Z,18.1
2018-07-02T08:53:40.032Z,17.2
2018-07-02T08:54:41.674Z,17.2
2018-07-02T08:55:43.310Z,17.7
2018-07-02T08:56:44.957Z,17.2
2018-07-02T08:57:46.594Z,17.8
2018-07-02T08:58:48.241Z,17.6
2018-07-02T08:59:49.875Z,17.6
2018-07-02T09:00:51.521Z,18.1
2018-07-02T09:01:53.166Z,18.7
2018-07-02T09:02:54.807Z,18.5
2018-07-02T09:03:56.451Z,17.9
2018-07-02T09:04:58.090Z,18.0
2018-07-02T09:05:59.738Z,17.3
2018-07-02T09:07:01.377Z,17.5
2018-07-02T09:08:03.021Z,18.3
2018-07-02T09:09:04.654Z,18.6
2018-07-02T09:10:06.295Z,18.6
2018-07-02T09:11:07.942Z,18.9
2018-07-02T09:12:09.583Z,18.5
2018-07-02T09:13:11.238Z,19.5
2018-07-02T09:14:12.881Z,19.0
2018-07-02T09:15:14.527Z,19.7
2018-07-02T09:16:16.390Z,18.8
2018-07-02T09:17:17.814Z,18.2
2018-07-02T09:18:19.453Z,18.7
2018-07-02T09:19:21.103Z,19.5
2018-07-02T09:20:22.750Z,20.1
2018-07-02T09:21:24.391Z,18.8
2018-07-02T09:22:26.031Z,18.3
2018-07-02T09:23:27.678Z,18.6
2018-07-02T09:24:29.319Z,18.6
2018-07-02T09:25:30.967Z,19.1
2018-07-02T09:26:32.617Z,19.3
2018-07-02T09:27:34.256Z,20.0
2018-07-02T09:28:35.904Z,20.1
2018-07-02T09:29:37.546Z,20.1
2018-07-02T09:30:39.191Z,20.8
2018-07-02T09:31:40.835Z,21.0
2018-07-02T09:32:42.483Z,20.4
2018-07-02T09:33:44.123Z,19.7
2018-07-02T09:34:45.763Z,20.3
2018-07-02T09:35:47.414Z,20.2
2018-07-02T09:36:49.053Z,19.6
2018-07-02T09:37:50.696Z,19.5
2018-07-02T09:38:52.336Z,18.6
2018-07-02T09:39:53.983Z,18.7
2018-07-02T09:40:55.630Z,18.4
2018-07-02T09:41:57.269Z,18.4
2018-07-02T09:42:58.910Z,18.7
2018-07-02T09:44:00.549Z,18.9
2018-07-02T09:45:02.190Z,18.6
2018-07-02T09:46:03.839Z,18.6
2018-07-02T09:47:05.481Z,18.8
2018-07-02T09:48:07.129Z,18.5
2018-07-02T09:49:08.771Z,18.8
2018-07-02T09:50:10.416Z,19.2
2018-07-02T09:51:12.057Z,17.6
2018-07-02T09:52:13.708Z,18.4
2018-07-02T09:53:15.350Z,18.7
2018-07-02T09:54:16.988Z,17.3
2018-07-02T09:55:18.631Z,17.7
2018-07-02T09:56:20.278Z,17.1
2018-07-02T09:57:21.916Z,18.3
2018-07-02T09:58:23.564Z,17.9
2018-07-02T09:59:25.210Z,18.3
2018-07-02T10:00:26.850Z,18.5
2018-07-02T10:01:28.498Z,18.8
2018-07-02T10:02:30.134Z,18.0
2018-07-02T10:03:31.785Z,18.3
2018-07-02T10:04:33.420Z,18.8
2018-07-02T10:05:35.065Z,18.7
2018-07-02T10:06:36.718Z,17.8
2018-07-02T10:07:38.347Z,17.9
2018-07-02T10:08:39.992Z,18.2
2018-07-02T10:09:41.636Z,17.6
2018-07-02T10:10:43.278Z,18.4
2018-07-02T10:11:44.924Z,18.3
2018-07-02T10:12:46.562Z,18.0
2018-07-02T10:13:48.202Z,17.9
2018-07-02T10:14:49.845Z,17.7
2018-07-02T10:15:51.484Z,17.8
2018-07-02T10:16:53.131Z,17.3
2018-07-02T10:17:54.779Z,18.1
2018-07-02T10:18:56.416Z,18.3
2018-07-02T10:19:58.061Z,18.0
2018-07-02T10:20:59.705Z,18.2
2018-07-02T10:22:01.343Z,18.7
2018-07-02T10:23:02.994Z,17.2
2018-07-02T10:24:04.637Z,17.1
2018-07-02T10:25:06.284Z,18.7
2018-07-02T10:26:07.927Z,18.6
2018-07-02T10:27:09.569Z,19.2
2018-07-02T10:28:11.213Z,18.3
2018-07-02T10:29:12.873Z,19.3
2018-07-02T10:30:14.500Z,19.3
2018-07-02T10:31:16.183Z,18.4
2018-07-02T10:32:17.787Z,18.3
2018-07-02T10:33:19.430Z,17.4
2018-07-02T10:34:21.075Z,18.0
2018-07-02T10:35:22.722Z,18.4
2018-07-02T10:36:24.370Z,18.7
2018-07-02T10:37:26.005Z,18.6
2018-07-02T10:38:27.653Z,18.1
2018-07-02T10:39:29.295Z,17.6
2018-07-02T10:40:30.932Z,17.0
2018-07-02T10:41:32.582Z,17.3
2018-07-02T10:42:34.219Z,17.0
2018-07-02T10:43:35.860Z,17.1
2018-07-02T10:44:37.510Z,18.5
2018-07-02T10:45:39.153Z,18.6
2018-07-02T10:46:40.808Z,18.6
2018-07-02T10:47:42.449Z,18.6
2018-07-02T10:48:44.092Z,19.3
2018-07-02T10:49:45.736Z,19.7
2018-07-02T10:50:47.375Z,18.7
2018-07-02T10:51:49.024Z,18.3
2018-07-02T10:52:50.670Z,18.5
2018-07-02T10:53:52.317Z,18.2
2018-07-02T10:54:53.964Z,18.6
2018-07-02T10:55:55.600Z,18.7
2018-07-02T10:56:57.242Z,18.7
2018-07-02T10:57:58.887Z,17.7
2018-07-02T10:59:00.526Z,17.9
2018-07-02T11:00:02.169Z,18.4
2018-07-02T11:01:03.819Z,18.0
2018-07-02T11:02:05.459Z,17.1
2018-07-02T11:03:07.102Z,18.6
2018-07-02T11:04:09.510Z,18.7
2018-07-02T11:05:11.151Z,18.1
2018-07-02T11:06:12.800Z,18.5
2018-07-02T11:07:14.439Z,18.3
2018-07-02T11:08:16.090Z,19.0
2018-07-02T11:09:17.732Z,18.5
2018-07-02T11:10:19.377Z,18.8
2018-07-02T11:11:21.056Z,18.8
2018-07-02T11:12:22.668Z,18.7
2018-07-02T11:13:24.303Z,18.4
2018-07-02T11:14:25.953Z,18.5
2018-07-02T11:15:27.596Z,17.5
2018-07-02T11:16:29.238Z,17.1
2018-07-02T11:17:30.883Z,18.0
2018-07-02T11:18:32.529Z,16.5
2018-07-02T11:19:34.171Z,17.2
2018-07-02T11:20:35.817Z,17.6
2018-07-02T11:21:37.465Z,16.8
2018-07-02T11:22:39.103Z,17.1
2018-07-02T11:23:40.786Z,17.5
2018-07-02T11:24:42.390Z,18.5
2018-07-02T11:25:44.035Z,17.5
2018-07-02T11:26:45.677Z,18.6
2018-07-02T11:27:47.320Z,18.7
2018-07-02T11:28:48.970Z,19.5
2018-07-02T11:29:50.629Z,19.9
2018-07-02T11:30:52.263Z,19.2
2018-07-02T11:31:53.914Z,19.6
2018-07-02T11:32:55.548Z,18.6
2018-07-02T11:33:57.189Z,18.7
2018-07-02T11:34:58.840Z,18.3
2018-07-02T11:36:00.482Z,17.4
2018-07-02T11:37:02.131Z,18.3
2018-07-02T11:38:03.774Z,17.6
2018-07-02T11:39:05.415Z,18.6
2018-07-02T11:40:07.067Z,17.4
2018-07-02T11:41:08.701Z,17.2
2018-07-02T11:42:10.348Z,17.3
2018-07-02T11:43:11.989Z,17.2
2018-07-02T11:44:13.651Z,17.7
2018-07-02T11:45:15.274Z,18.5
2018-07-02T11:46:16.915Z,19.1
2018-07-02T11:47:18.563Z,19.5
2018-07-02T11:48:20.204Z,19.2
2018-07-02T11:49:21.851Z,18.5
2018-07-02T11:50:23.503Z,18.7
2018-07-02T11:51:25.140Z,18.6
2018-07-02T11:52:26.779Z,19.5
2018-07-02T11:53:28.425Z,17.8
2018-07-02T11:54:30.064Z,19.3
2018-07-02T11:55:31.711Z,17.4
2018-07-02T11:56:33.355Z,18.6
2018-07-02T11:57:35.000Z,18.0
2018-07-02T11:58:36.647Z,17.9
2018-07-02T11:59:38.292Z,17.6
2018-07-02T12:00:39.935Z,17.5
2018-07-02T12:01:41.578Z,17.0
2018-07-02T12:02:43.218Z,17.8
2018-07-02T12:03:44.864Z,17.9
2018-07-02T12:04:46.514Z,17.7
2018-07-02T12:05:48.152Z,18.0
2018-07-02T12:06:49.793Z,17.1
2018-07-02T12:07:51.448Z,16.3
2018-07-02T12:08:53.086Z,17.7
2018-07-02T12:09:54.791Z,17.3
2018-07-02T12:10:56.376Z,19.6
2018-07-02T12:11:58.016Z,19.7
2018-07-02T12:12:59.660Z,17.9
2018-07-02T12:14:01.305Z,18.8
2018-07-02T12:15:02.951Z,18.2
2018-07-02T12:16:04.593Z,17.3
2018-07-02T12:17:06.233Z,18.9
2018-07-02T12:18:07.874Z,18.6
2018-07-02T12:19:09.515Z,18.3
2018-07-02T12:20:11.164Z,18.7
2018-07-02T12:21:12.798Z,18.4
2018-07-02T12:22:14.447Z,18.6
2018-07-02T12:23:16.091Z,18.1
2018-07-02T12:24:17.733Z,18.2
2018-07-02T12:25:19.371Z,18.2
2018-07-02T12:26:21.028Z,17.2
2018-07-02T12:27:22.657Z,16.7
2018-07-02T12:28:24.301Z,17.1
2018-07-02T12:29:25.945Z,18.1
2018-07-02T12:30:27.587Z,17.6
2018-07-02T12:31:29.230Z,17.5
2018-07-02T12:32:30.870Z,17.1
2018-07-02T12:33:32.575Z,17.2
2018-07-02T12:34:34.160Z,17.9
2018-07-02T12:35:35.803Z,18.3
2018-07-02T12:36:37.442Z,17.2
2018-07-02T12:37:39.089Z,17.4
2018-07-02T12:38:40.728Z,18.0
2018-07-02T12:39:42.371Z,17.5
2018-07-02T12:40:44.011Z,17.2
2018-07-02T12:41:45.658Z,17.5
2018-07-02T12:42:47.297Z,17.0
2018-07-02T12:43:48.940Z,18.1
2018-07-02T12:44:50.580Z,18.1
2018-07-02T12:45:52.220Z,18.7
2018-07-02T12:46:53.867Z,18.7
2018-07-02T12:47:55.515Z,18.3
2018-07-02T12:48:57.147Z,19.0
2018-07-02T12:49:58.793Z,18.6
2018-07-02T12:51:00.429Z,18.7
2018-07-02T12:52:02.072Z,17.4
2018-07-02T12:53:03.709Z,17.9
2018-07-02T12:54:05.413Z,16.8
2018-07-02T12:55:06.995Z,17.0
2018-07-02T12:56:08.640Z,16.9
2018-07-02T12:57:10.274Z,17.4
2018-07-02T12:58:11.922Z,17.4
2018-07-02T12:59:13.559Z,18.1
2018-07-02T13:00:15.198Z,17.0
2018-07-02T13:01:16.843Z,17.2
2018-07-02T13:02:18.549Z,18.6
2018-07-02T13:03:20.085Z,18.6
2018-07-02T13:04:21.779Z,18.4
2018-07-02T13:05:23.367Z,18.7
2018-07-02T13:06:25.003Z,18.7
2018-07-02T13:07:26.646Z,18.9
2018-07-02T13:08:28.290Z,18.8
2018-07-02T13:09:29.928Z,18.6
2018-07-02T13:10:31.568Z,19.5
2018-07-02T13:11:33.205Z,18.3
2018-07-02T13:12:34.846Z,18.7
2018-07-02T13:13:36.532Z,18.7
2018-07-02T13:14:38.121Z,18.6
2018-07-02T13:15:39.764Z,18.3
2018-07-02T13:16:41.404Z,18.5
2018-07-02T13:17:43.049Z,18.2
2018-07-02T13:18:44.692Z,19.9
2018-07-02T13:19:46.387Z,18.4
2018-07-02T13:20:47.963Z,19.7
2018-07-02T13:21:49.604Z,18.8
2018-07-02T13:22:51.245Z,18.7
2018-07-02T13:23:52.881Z,18.8
2018-07-02T13:24:54.526Z,18.2
2018-07-02T13:25:56.158Z,18.4
2018-07-02T13:26:57.869Z,19.5
2018-07-02T13:27:59.441Z,18.7
2018-07-02T13:29:01.083Z,18.5
2018-07-02T13:30:02.738Z,18.7
2018-07-02T13:31:04.362Z,19.8
2018-07-02T13:32:05.999Z,19.7
2018-07-02T13:33:07.636Z,19.5
2018-07-02T13:34:09.275Z,19.9
2018-07-02T13:35:10.910Z,19.8
2018-07-02T13:36:12.645Z,20.0
2018-07-02T13:37:14.191Z,19.7
2018-07-02T13:38:15.831Z,18.9
2018-07-02T13:39:17.476Z,18.7
2018-07-02T13:40:19.107Z,18.6